Time;durP1;ratioP1;P1;durP2;ratioP2;P2;SDS_P1;SDS_P2;PMS_P1;PMS_P2;Temp;Humidity;BMP_temperature;BMP_pressure;BME280_temperature;BME280_humidity;BME280_pressure;Samples;Min_cycle;Max_cycle;Signal;HPM_P1;HPM_P2
2022/06/25 00:01:50;;;;;;;4.43;2.15;;;;;;;17.44;81.34;100755.41;4743296;30;20408;-91
2022/06/25 00:07:00;;;;;;;4.65;2.17;;;;;;;17.44;82.08;100763.44;4754432;30;20127;-90
2022/06/25 00:09:25;;;;;;;3.83;2.05;;;;;;;17.32;82.93;100754.22;4739872;30;20115;-90
2022/06/25 00:14:36;;;;;;;4.68;2.00;;;;;;;17.29;81.81;100749.03;4754396;30;20468;-91
2022/06/25 00:17:02;;;;;;;4.38;1.88;;;;;;;17.36;81.82;100763.84;4754793;30;20039;-91
2022/06/25 00:19:28;;;;;;;3.03;2.10;;;;;;;17.35;81.83;100768.28;4742991;30;20051;-90
2022/06/25 00:21:53;;;;;;;3.20;1.90;;;;;;;17.37;81.80;100769.09;4733909;30;20038;-90
2022/06/25 00:24:19;;;;;;;5.45;2.20;;;;;;;17.28;81.47;100761.50;4751969;30;20043;-91
2022/06/25 00:26:44;;;;;;;3.17;2.00;;;;;;;17.32;81.25;100755.06;4754180;30;20028;-92
2022/06/25 00:29:11;;;;;;;3.53;2.10;;;;;;;17.32;81.11;100767.59;4745795;30;20067;-91
2022/06/25 00:31:37;;;;;;;2.60;1.88;;;;;;;17.27;80.93;100753.59;4733844;30;20113;-90
2022/06/25 00:34:03;;;;;;;3.72;1.92;;;;;;;17.30;81.29;100770.34;4732482;30;20465;-90
2022/06/25 00:36:28;;;;;;;4.60;2.00;;;;;;;17.28;81.28;100771.38;4739263;30;20114;-91
2022/06/25 00:38:54;;;;;;;3.00;1.80;;;;;;;17.20;81.41;100764.59;4739573;30;20134;-91
2022/06/25 00:41:20;;;;;;;3.33;1.90;;;;;;;17.30;81.28;100764.13;4739469;30;20114;-91
2022/06/25 00:43:46;;;;;;;4.85;1.98;;;;;;;17.28;81.79;100768.69;4724990;30;20092;-91
2022/06/25 00:46:11;;;;;;;2.92;1.90;;;;;;;17.24;81.68;100764.47;4739506;30;20031;-91
2022/06/25 00:48:37;;;;;;;2.65;2.00;;;;;;;17.23;81.55;100765.38;4739692;30;20062;-91
2022/06/25 00:51:11;;;;;;;3.15;1.90;;;;;;;17.21;81.88;100765.47;4739528;30;20043;-91
2022/06/25 00:53:42;;;;;;;5.55;2.15;;;;;;;17.20;82.05;100774.44;4739286;30;20402;-90
2022/06/25 00:56:09;;;;;;;6.50;2.28;;;;;;;17.19;81.85;100764.69;4739565;30;20127;-90
2022/06/25 00:58:39;;;;;;;7.75;2.13;;;;;;;17.06;81.25;100752.84;4738858;30;20047;-90
2022/06/25 01:01:05;;;;;;;4.20;2.13;;;;;;;17.13;82.06;100773.88;4762986;30;20035;-91
2022/06/25 01:03:30;;;;;;;3.25;1.95;;;;;;;17.08;82.10;100775.03;4743032;30;20055;-90
2022/06/25 01:05:56;;;;;;;2.80;2.00;;;;;;;17.10;81.63;100787.41;4739256;30;20131;-87
2022/06/25 01:08:23;;;;;;;4.85;2.10;;;;;;;17.11;82.54;100791.84;4739268;30;20122;-89
2022/06/25 01:10:48;;;;;;;8.18;2.05;;;;;;;17.09;82.94;100795.53;4753981;30;20117;-89
2022/06/25 01:13:15;;;;;;;8.75;2.40;;;;;;;17.02;81.97;100792.28;4740342;30;20499;-89
2022/06/25 01:15:41;;;;;;;4.47;2.38;;;;;;;16.92;83.51;100788.31;4741148;30;20039;-89
2022/06/25 01:18:07;;;;;;;5.97;2.55;;;;;;;16.95;82.60;100794.38;4737465;30;20039;-89
2022/06/25 01:20:34;;;;;;;6.20;2.40;;;;;;;16.93;83.33;100795.41;4743873;30;20111;-89
2022/06/25 01:23:00;;;;;;;5.60;2.55;;;;;;;16.84;83.64;100780.69;4734800;30;20020;-88
2022/06/25 01:25:34;;;;;;;6.05;2.47;;;;;;;16.85;83.07;100795.78;4768544;30;20556;-88
2022/06/25 01:28:01;;;;;;;4.50;2.50;;;;;;;16.88;83.31;100800.97;4744624;30;20097;-88
2022/06/25 01:30:26;;;;;;;4.70;2.10;;;;;;;16.88;83.06;100803.66;4747821;30;20035;-90
2022/06/25 01:32:52;;;;;;;4.25;2.45;;;;;;;16.84;83.56;100809.22;4711287;30;20047;-91
2022/06/25 01:35:18;;;;;;;4.90;2.28;;;;;;;16.72;83.30;100803.50;4739448;30;20050;-91
2022/06/25 01:37:44;;;;;;;4.55;2.22;;;;;;;16.75;82.86;100808.69;4727424;30;20489;-90
2022/06/25 01:40:10;;;;;;;5.45;2.33;;;;;;;16.79;82.54;100824.63;4753615;30;20027;-91
2022/06/25 01:45:20;;;;;;;3.90;2.30;;;;;;;16.73;83.57;100834.63;4745254;30;20047;-90
2022/06/25 01:47:46;;;;;;;6.18;2.30;;;;;;;16.68;83.57;100825.97;4742270;30;20039;-90
2022/06/25 01:50:13;;;;;;;3.75;2.40;;;;;;;16.64;83.36;100821.72;4754280;30;20377;-90
2022/06/25 01:52:40;;;;;;;9.55;2.65;;;;;;;16.61;82.45;100819.16;4742433;30;20123;-90
2022/06/25 01:55:07;;;;;;;5.43;2.55;;;;;;;16.63;83.67;100838.69;4754518;30;20495;-90
2022/06/25 01:57:37;;;;;;;;;;;;;;;16.73;82.27;100839.97;4740130;30;20143;-90
2022/06/25 02:00:10;;;;;;;4.85;2.40;;;;;;;16.63;84.01;100853.88;4740351;30;19918;-91
2022/06/25 02:02:50;;;;;;;6.30;2.38;;;;;;;16.58;83.37;100850.53;4739237;30;20036;-90
2022/06/25 02:05:56;;;;;;;8.27;2.50;;;;;;;16.55;83.56;100847.06;4752406;30;20668;-92
2022/06/25 02:08:07;;;;;;;13.10;3.08;;;;;;;16.57;83.68;100860.38;4739859;30;20082;-91
2022/06/25 02:10:32;;;;;;;4.60;2.25;;;;;;;16.51;83.02;100853.47;4729650;30;20036;-92
2022/06/25 02:12:58;;;;;;;7.45;3.00;;;;;;;16.52;83.67;100857.91;4724307;30;20040;-91
2022/06/25 02:15:27;;;;;;;5.60;2.40;;;;;;;16.47;82.52;100854.59;4726329;30;20094;-90
2022/06/25 02:17:53;;;;;;;4.22;2.55;;;;;;;16.50;83.67;100870.47;4754481;30;20463;-91
2022/06/25 02:20:18;;;;;;;5.55;2.50;;;;;;;16.44;83.88;100864.53;4733619;30;20119;-90
2022/06/25 02:22:44;;;;;;;7.50;3.03;;;;;;;16.38;83.55;100865.69;4753499;30;20500;-90
2022/06/25 02:25:09;;;;;;;11.07;2.67;;;;;;;16.35;84.32;100863.16;4748751;30;20068;-90
2022/06/25 02:27:35;;;;;;;7.13;2.80;;;;;;;16.35;84.19;100876.53;4738470;30;20412;-91
2022/06/25 02:30:01;;;;;;;7.97;2.97;;;;;;;16.27;84.63;100868.84;4724023;30;20039;-90
2022/06/25 02:32:29;;;;;;;4.93;2.72;;;;;;;16.30;84.75;100884.75;4724313;30;20051;-92
2022/06/25 02:34:55;;;;;;;5.22;3.00;;;;;;;16.18;84.31;100866.59;4724071;30;20063;-90
2022/06/25 02:37:20;;;;;;;5.88;2.67;;;;;;;16.20;84.37;100880.75;4736826;30;20068;-91
2022/06/25 02:39:46;;;;;;;5.88;2.70;;;;;;;16.22;84.27;100894.03;4723693;30;20532;-90
2022/06/25 02:42:12;;;;;;;6.55;2.50;;;;;;;16.19;84.67;100899.50;4738738;30;20496;-91
2022/06/25 02:44:37;;;;;;;7.28;3.10;;;;;;;16.13;84.60;100887.31;4725880;30;20489;-92
2022/06/25 02:47:03;;;;;;;6.00;2.50;;;;;;;16.01;84.11;100872.69;4720524;30;20047;-91
2022/06/25 02:49:44;;;;;;;10.27;3.40;;;;;;;16.02;85.14;100887.78;4727807;30;20047;-92
2022/06/25 02:52:10;;;;;;;4.78;3.20;;;;;;;16.02;84.59;100894.91;4730462;30;20052;-91
2022/06/25 02:54:36;;;;;;;4.80;2.95;;;;;;;16.05;85.13;100906.34;4723136;30;20552;-91
2022/06/25 02:59:46;;;;;;;6.53;3.15;;;;;;;15.96;85.16;100889.84;4736469;30;20047;-93
2022/06/25 03:02:12;;;;;;;6.05;2.80;;;;;;;15.96;84.74;100892.53;4723495;30;20031;-91
2022/06/25 03:04:42;;;;;;;5.72;3.20;;;;;;;15.89;85.09;100881.22;4738006;30;20032;-90
2022/06/25 03:07:08;;;;;;;6.15;2.85;;;;;;;15.91;85.41;100892.72;4738139;30;20381;-89
2022/06/25 03:09:33;;;;;;;6.65;2.88;;;;;;;15.88;85.30;100907.06;4723284;30;20040;-89
2022/06/25 03:12:01;;;;;;;6.18;3.00;;;;;;;15.90;85.21;100904.34;4709614;30;20044;-87
2022/06/25 03:14:28;;;;;;;7.68;3.05;;;;;;;15.86;85.03;100897.38;4728923;30;20033;-89
2022/06/25 03:16:57;;;;;;;7.75;2.88;;;;;;;15.88;85.01;100908.88;4733721;30;20036;-88
2022/06/25 03:19:28;;;;;;;6.55;3.00;;;;;;;15.85;84.71;100900.97;4731132;30;20036;-89
2022/06/25 03:22:05;;;;;;;6.72;3.00;;;;;;;15.78;84.95;100899.53;4724361;30;20032;-90
2022/06/25 03:24:31;;;;;;;6.22;2.72;;;;;;;15.82;84.94;100903.78;4723359;30;20032;-90
2022/06/25 03:26:56;;;;;;;5.50;2.88;;;;;;;15.82;84.70;100906.44;4721153;30;20042;-89
2022/06/25 03:29:22;;;;;;;12.40;3.65;;;;;;;15.80;85.50;100908.31;4737472;30;20119;-89
2022/06/25 03:31:48;;;;;;;7.53;3.30;;;;;;;15.79;85.14;100912.78;4723246;30;20456;-89
2022/06/25 03:34:36;;;;;;;7.75;3.20;;;;;;;15.80;85.74;100906.53;4740008;30;20123;-89
2022/06/25 03:37:02;;;;;;;7.22;2.83;;;;;;;15.79;85.06;100907.44;4737674;30;20127;-89
2022/06/25 03:39:28;;;;;;;5.05;3.05;;;;;;;15.84;84.75;100918.81;4723019;30;20102;-89
2022/06/25 03:41:54;;;;;;;6.45;3.00;;;;;;;15.84;84.72;100917.94;4722974;30;20032;-89
2022/06/25 03:44:31;;;;;;;6.72;3.10;;;;;;;15.89;84.82;100919.47;4727875;30;20061;-89
2022/06/25 03:47:05;;;;;;;8.70;3.80;;;;;;;15.85;85.36;100912.56;4737442;30;20044;-88
2022/06/25 03:49:33;;;;;;;8.88;3.20;;;;;;;15.88;84.58;100914.22;4723121;30;20508;-88
2022/06/25 03:52:00;;;;;;;4.57;3.15;;;;;;;15.93;84.43;100922.03;4719701;30;20519;-88
2022/06/25 03:54:27;;;;;;;9.63;3.58;;;;;;;15.91;85.19;100920.28;4709693;30;20044;-89
2022/06/25 03:56:52;;;;;;;8.00;3.50;;;;;;;15.97;85.53;100927.16;4704881;30;20036;-88
2022/06/25 03:59:21;;;;;;;10.95;3.38;;;;;;;15.93;85.59;100916.69;4720935;30;20052;-88
2022/06/25 04:01:53;;;;;;;14.10;3.65;;;;;;;16.00;85.22;100918.13;4723565;30;20047;-90
2022/06/25 04:04:19;;;;;;;8.60;3.58;;;;;;;16.07;84.93;100924.97;4722820;30;20067;-89
2022/06/25 04:06:45;;;;;;;7.47;3.28;;;;;;;16.11;85.27;100922.09;4718730;30;20025;-88
2022/06/25 04:09:11;;;;;;;7.13;3.55;;;;;;;16.10;85.42;100916.84;4722577;30;20055;-88
2022/06/25 04:11:37;;;;;;;6.35;3.15;;;;;;;16.13;85.18;100916.69;4707621;30;20044;-89
2022/06/25 04:14:03;;;;;;;6.53;2.90;;;;;;;16.19;84.82;100924.41;4737176;30;20119;-90
2022/06/25 04:16:30;;;;;;;5.35;2.97;;;;;;;16.25;84.59;100928.66;4719381;30;20396;-89
2022/06/25 04:19:03;;;;;;;4.90;3.28;;;;;;;16.16;85.42;100919.22;4723506;30;20047;-90
2022/06/25 04:21:32;;;;;;;4.95;3.20;;;;;;;16.27;85.21;100932.09;4736778;30;20129;-88
2022/06/25 04:23:58;;;;;;;9.63;3.28;;;;;;;16.31;84.88;100934.56;4722463;30;20588;-90
2022/06/25 04:26:27;;;;;;;6.90;3.28;;;;;;;16.33;85.16;100934.53;4722489;30;20147;-88
2022/06/25 04:29:04;;;;;;;4.80;3.00;;;;;;;16.25;85.42;100910.81;4722427;30;20489;-88
2022/06/25 04:31:44;;;;;;;7.18;3.10;;;;;;;16.41;85.06;100940.38;4737026;30;20051;-88
2022/06/25 04:34:19;;;;;;;7.03;2.72;;;;;;;16.37;85.08;100936.13;4723480;30;20054;-89
2022/06/25 04:36:49;;;;;;;5.65;2.95;;;;;;;16.42;84.64;100942.13;4722579;30;20051;-89
2022/06/25 04:39:34;;;;;;;11.82;2.78;;;;;;;16.50;84.73;100947.13;4737049;30;20048;-92
2022/06/25 04:42:00;;;;;;;6.55;3.30;;;;;;;16.45;85.26;100942.00;4736541;30;20489;-91
2022/06/25 04:44:28;;;;;;;9.38;3.10;;;;;;;16.49;84.63;100934.69;4722586;30;20398;-91
2022/06/25 04:46:56;;;;;;;7.60;3.05;;;;;;;16.58;85.32;100953.00;4736368;30;20135;-91
2022/06/25 04:49:32;;;;;;;5.65;3.00;;;;;;;16.59;84.50;100940.50;4724957;30;20477;-92
2022/06/25 04:51:58;;;;;;;5.47;2.83;;;;;;;16.71;84.94;100959.50;4736688;30;20047;-92
2022/06/25 04:54:24;;;;;;;5.30;2.85;;;;;;;16.67;84.32;100941.88;4722139;30;20440;-91
2022/06/25 04:57:13;;;;;;;9.30;2.72;;;;;;;16.87;84.54;100965.06;4724892;30;20048;-90
2022/06/25 05:00:11;;;;;;;5.78;2.90;;;;;;;16.99;84.50;100969.00;4726490;30;20048;-92
2022/06/25 05:02:38;;;;;;;5.13;2.83;;;;;;;17.01;83.78;100951.03;4753637;30;20084;-92
2022/06/25 05:05:10;;;;;;;5.90;3.05;;;;;;;17.17;83.62;100968.13;4754122;30;20056;-90
2022/06/25 05:07:36;;;;;;;4.95;3.10;;;;;;;17.25;83.17;100970.44;4724831;30;20177;-88
2022/06/25 05:10:02;;;;;;;6.55;2.95;;;;;;;17.30;83.15;100970.22;4739273;30;20043;-92
2022/06/25 05:15:13;;;;;;;8.55;2.50;;;;;;;17.28;81.45;100961.38;4762363;30;20082;-92
2022/06/25 05:17:39;;;;;;;4.60;2.70;;;;;;;17.34;81.64;100972.69;4745658;30;20099;-87
2022/06/25 05:20:06;;;;;;;4.45;2.58;;;;;;;17.34;81.01;100982.53;4748132;30;20043;-89
2022/06/25 05:22:32;;;;;;;9.80;2.92;;;;;;;17.35;81.43;100977.06;4731895;30;20060;-89
2022/06/25 05:24:57;;;;;;;6.65;2.72;;;;;;;17.36;80.98;100989.53;4743793;30;20040;-88
2022/06/25 05:27:23;;;;;;;6.65;2.45;;;;;;;17.40;80.73;100999.13;4751210;30;20042;-88
2022/06/25 05:29:49;;;;;;;7.53;2.72;;;;;;;17.44;80.92;100993.66;4757295;30;20048;-90
2022/06/25 05:32:14;;;;;;;7.38;2.80;;;;;;;17.45;80.63;100980.19;4742400;30;20036;-88
2022/06/25 05:34:40;;;;;;;10.40;2.72;;;;;;;17.46;80.02;100976.56;4757272;30;20044;-89
2022/06/25 05:37:09;;;;;;;6.20;2.72;;;;;;;17.50;80.68;100986.19;4727893;30;20522;-89
2022/06/25 05:39:35;;;;;;;6.15;2.55;;;;;;;17.53;81.13;100975.34;4757044;30;20046;-89
2022/06/25 05:42:00;;;;;;;5.85;2.92;;;;;;;17.75;79.65;100995.69;4742020;30;20028;-91
2022/06/25 05:44:26;;;;;;;5.68;2.80;;;;;;;17.78;80.29;100987.53;4727921;30;20421;-89
2022/06/25 05:46:55;;;;;;;7.00;2.85;;;;;;;17.88;79.58;100983.47;4742013;30;20510;-89
2022/06/25 05:49:23;;;;;;;9.52;2.78;;;;;;;17.94;78.75;100990.34;4756771;30;20040;-90
2022/06/25 05:51:51;;;;;;;11.55;3.03;;;;;;;17.94;78.79;100993.88;4742093;30;20444;-88
2022/06/25 05:54:26;;;;;;;7.15;2.50;;;;;;;18.05;79.12;101006.72;4754259;30;20039;-89
2022/06/25 05:56:52;;;;;;;7.45;2.80;;;;;;;17.99;78.11;101007.03;4756476;30;20036;-89
2022/06/25 05:59:17;;;;;;;6.07;2.47;;;;;;;17.97;78.13;101004.44;4758790;30;20056;-88
2022/06/25 06:01:43;;;;;;;7.13;2.42;;;;;;;18.02;78.60;101009.56;4766880;30;20035;-88
2022/06/25 06:04:09;;;;;;;9.00;2.58;;;;;;;18.01;78.22;101006.03;4751924;30;20480;-88
2022/06/25 06:06:34;;;;;;;5.80;2.67;;;;;;;18.06;78.42;101013.84;4762720;30;20370;-91
2022/06/25 06:09:00;;;;;;;6.05;2.80;;;;;;;18.12;77.22;101013.50;4763149;30;20488;-88
2022/06/25 06:11:26;;;;;;;4.80;2.53;;;;;;;18.20;77.70;101015.78;4742684;30;20048;-91
2022/06/25 06:13:51;;;;;;;6.25;2.90;;;;;;;18.28;76.56;101032.38;4759520;30;20092;-90
2022/06/25 06:16:17;;;;;;;7.97;2.70;;;;;;;18.35;77.00;101031.13;4758118;30;20114;-90
2022/06/25 06:18:42;;;;;;;5.30;3.17;;;;;;;18.39;76.79;101032.69;4753795;30;20381;-89
2022/06/25 06:21:08;;;;;;;13.00;2.80;;;;;;;18.49;77.97;101025.03;4772146;30;20048;-91
2022/06/25 06:23:34;;;;;;;10.85;3.42;;;;;;;18.52;76.78;101024.91;4748921;30;20023;-91
2022/06/25 06:25:59;;;;;;;9.25;3.20;;;;;;;18.74;76.55;101035.34;4738474;30;20040;-90
2022/06/25 06:28:25;;;;;;;9.00;2.42;;;;;;;18.76;75.81;101037.97;4742351;30;20028;-91
2022/06/25 06:30:50;;;;;;;6.72;2.50;;;;;;;18.84;76.10;101027.69;4741497;30;20476;-90
2022/06/25 06:33:17;;;;;;;7.90;2.70;;;;;;;18.95;75.49;101037.88;4756486;30;20031;-91
2022/06/25 06:35:43;;;;;;;9.75;2.95;;;;;;;19.06;74.93;101044.38;4725520;30;20050;-91
2022/06/25 06:38:08;;;;;;;7.30;2.80;;;;;;;19.09;74.90;101036.19;4751122;30;20028;-90
2022/06/25 06:40:43;;;;;;;5.70;2.50;;;;;;;19.15;73.49;101043.03;4771014;30;20041;-91
2022/06/25 06:43:19;;;;;;;7.03;2.63;;;;;;;19.31;72.85;101049.31;4771724;30;20043;-90
2022/06/25 06:45:45;;;;;;;10.40;3.35;;;;;;;19.25;72.36;101046.06;4726397;30;20599;-91
2022/06/25 06:48:10;;;;;;;9.18;3.10;;;;;;;19.25;73.68;101038.03;4755645;30;20032;-90
2022/06/25 06:50:36;;;;;;;6.60;2.88;;;;;;;19.24;73.47;101030.94;4740873;30;20040;-89
2022/06/25 06:53:01;;;;;;;7.28;3.22;;;;;;;19.33;73.10;101046.50;4755321;30;20059;-89
2022/06/25 06:55:27;;;;;;;9.80;3.03;;;;;;;19.28;72.70;101044.06;4740634;30;20130;-89
2022/06/25 06:58:02;;;;;;;6.65;2.83;;;;;;;19.25;73.78;101035.34;4739177;30;20060;-91
2022/06/25 07:00:31;;;;;;;7.65;3.30;;;;;;;19.29;73.08;101037.78;4741320;30;20043;-90
2022/06/25 07:02:56;;;;;;;10.07;3.20;;;;;;;19.47;72.97;101035.88;4738142;30;20047;-89
2022/06/25 07:05:22;;;;;;;6.53;2.88;;;;;;;19.59;73.14;101044.22;4755337;30;20476;-85
2022/06/25 07:07:47;;;;;;;5.07;2.75;;;;;;;19.66;73.09;101034.84;4736960;30;20123;-91
2022/06/25 07:10:14;;;;;;;7.47;2.95;;;;;;;19.74;71.59;101038.00;4739636;30;20036;-91
2022/06/25 07:12:40;;;;;;;6.35;2.70;;;;;;;19.85;72.16;101038.22;4744414;30;20467;-88
2022/06/25 07:15:06;;;;;;;5.60;2.78;;;;;;;19.89;70.32;101049.69;4754218;30;20063;-86
2022/06/25 07:17:31;;;;;;;17.08;3.30;;;;;;;19.95;71.30;101038.56;4755071;30;20032;-86
2022/06/25 07:19:58;;;;;;;9.13;2.88;;;;;;;20.16;69.92;101058.84;4739726;30;20051;-86
2022/06/25 07:22:23;;;;;;;9.70;3.00;;;;;;;20.31;70.45;101051.69;4770674;30;20535;-85
2022/06/25 07:24:51;;;;;;;8.90;3.10;;;;;;;20.43;69.63;101060.84;4753701;30;20138;-86
2022/06/25 07:27:17;;;;;;;8.15;2.95;;;;;;;20.23;68.49;101050.38;4739180;30;20043;-85
2022/06/25 07:29:43;;;;;;;8.77;2.97;;;;;;;20.29;69.57;101052.72;4747692;30;20083;-88
2022/06/25 07:32:08;;;;;;;7.30;2.70;;;;;;;20.37;69.35;101045.06;4749948;30;20473;-88
2022/06/25 07:34:35;;;;;;;9.48;2.78;;;;;;;20.51;68.90;101053.19;4731634;30;20040;-88
2022/06/25 07:37:01;;;;;;;4.70;2.95;;;;;;;20.55;69.06;101048.53;4754336;30;20035;-88
2022/06/25 07:39:34;;;;;;;7.15;2.80;;;;;;;20.65;68.84;101055.09;4753966;30;20108;-88
2022/06/25 07:42:00;;;;;;;7.28;2.63;;;;;;;20.35;67.31;101042.50;4775210;30;20036;-89
2022/06/25 07:44:25;;;;;;;6.65;2.75;;;;;;;20.24;69.22;101046.75;4753816;30;20046;-88
2022/06/25 07:46:50;;;;;;;9.43;3.25;;;;;;;20.39;69.18;101060.16;4768748;30;20129;-88
2022/06/25 07:49:16;;;;;;;5.10;2.70;;;;;;;20.62;68.95;101052.56;4739452;30;20024;-89
2022/06/25 07:51:57;;;;;;;6.20;2.80;;;;;;;20.78;67.60;101061.44;4754127;30;20180;-90
2022/06/25 07:54:24;;;;;;;8.13;3.00;;;;;;;20.89;67.92;101047.31;4739377;30;20031;-90
2022/06/25 07:56:50;;;;;;;7.90;2.80;;;;;;;20.86;65.92;101047.50;4751334;30;20051;-88
2022/06/25 07:59:25;;;;;;;4.15;2.53;;;;;;;20.74;67.10;101053.63;4745721;30;20497;-90
2022/06/25 08:01:50;;;;;;;5.22;2.42;;;;;;;20.60;66.73;101062.56;4730026;30;20513;-88
2022/06/25 08:04:16;;;;;;;7.50;2.70;;;;;;;20.50;68.12;101064.03;4725086;30;20048;-90
2022/06/25 08:06:50;;;;;;;6.88;2.53;;;;;;;20.54;68.78;101073.66;4721382;30;20083;-88
2022/06/25 08:09:18;;;;;;;6.45;2.67;;;;;;;20.38;68.05;101062.94;4731757;30;20036;-89
2022/06/25 08:11:46;;;;;;;7.13;2.90;;;;;;;20.33;68.43;101055.16;4725552;30;20040;-88
2022/06/25 08:14:11;;;;;;;7.50;2.67;;;;;;;20.31;69.17;101066.97;4736260;30;20512;-88
2022/06/25 08:16:38;;;;;;;4.15;2.20;;;;;;;20.36;68.61;101063.03;4727011;30;20516;-89
2022/06/25 08:19:03;;;;;;;3.92;2.15;;;;;;;20.35;68.08;101065.81;4734175;30;20086;-88
2022/06/25 08:21:29;;;;;;;7.18;2.03;;;;;;;20.38;67.51;101061.13;4751066;30;20027;-88
2022/06/25 08:23:55;;;;;;;7.30;2.38;;;;;;;20.38;68.60;101079.94;4744365;30;20559;-91
2022/06/25 08:26:20;;;;;;;3.92;1.75;;;;;;;20.29;67.22;101071.56;4728017;30;20038;-89
2022/06/25 08:28:46;;;;;;;4.75;1.88;;;;;;;20.29;67.27;101072.41;4752605;30;20044;-88
2022/06/25 08:31:32;;;;;;;10.45;2.10;;;;;;;20.26;67.37;101086.06;4753376;30;20044;-88
2022/06/25 08:33:58;;;;;;;5.63;1.98;;;;;;;20.09;68.95;101065.53;4729686;30;20055;-89
2022/06/25 08:36:24;;;;;;;5.18;1.90;;;;;;;20.11;69.29;101070.81;4743714;30;20039;-89
2022/06/25 08:38:49;;;;;;;6.75;2.08;;;;;;;20.21;69.50;101082.78;4720374;30;20060;-88
2022/06/25 08:41:38;;;;;;;6.40;2.08;;;;;;;20.24;69.33;101085.28;4735914;30;20043;-88
2022/06/25 08:44:04;;;;;;;6.43;2.10;;;;;;;20.21;68.94;101069.31;4749360;30;20036;-89
2022/06/25 08:46:30;;;;;;;5.63;1.83;;;;;;;20.26;68.23;101079.81;4721695;30;20025;-89
2022/06/25 08:48:56;;;;;;;3.85;1.67;;;;;;;20.16;67.70;101077.66;4721946;30;20404;-89
2022/06/25 08:51:27;;;;;;;8.77;2.08;;;;;;;20.16;68.47;101069.59;4721801;30;20024;-89
2022/06/25 08:53:54;;;;;;;4.35;1.67;;;;;;;20.15;67.67;101075.03;4725481;30;20040;-90
2022/06/25 08:56:20;;;;;;;5.38;1.77;;;;;;;20.30;68.94;101082.25;4724819;30;20031;-91
2022/06/25 08:58:46;;;;;;;5.38;1.95;;;;;;;20.41;67.97;101077.06;4752183;30;20403;-88
2022/06/25 09:01:12;;;;;;;4.05;2.17;;;;;;;20.59;67.63;101076.97;4743086;30;20036;-89
2022/06/25 09:03:39;;;;;;;5.57;2.08;;;;;;;20.89;68.32;101071.53;4747779;30;20117;-90
2022/06/25 09:06:38;;;;;;;5.30;1.90;;;;;;;21.18;65.63;101067.03;4741797;30;20115;-91
2022/06/25 09:09:21;;;;;;;5.43;2.00;;;;;;;21.44;65.52;101091.53;4772149;30;20091;-91
2022/06/25 09:11:48;;;;;;;7.90;2.03;;;;;;;21.26;64.76;101071.94;4762761;30;20040;-91
2022/06/25 09:14:28;;;;;;;6.10;2.00;;;;;;;21.26;65.76;101082.72;4753019;30;20157;-89
2022/06/25 09:16:58;;;;;;;5.03;2.10;;;;;;;21.26;66.47;101090.78;4770073;30;20047;-89
2022/06/25 09:19:39;;;;;;;8.95;2.05;;;;;;;21.25;66.00;101092.63;4755705;30;20027;-88
2022/06/25 09:22:12;;;;;;;5.32;2.00;;;;;;;21.20;66.26;101083.13;4766861;30;20050;-89
2022/06/25 09:24:42;;;;;;;4.25;1.88;;;;;;;21.17;65.74;101081.47;4760521;30;20047;-89
2022/06/25 09:27:08;;;;;;;8.82;2.60;;;;;;;21.19;66.27;101075.97;4751527;30;20140;-88
2022/06/25 09:29:55;;;;;;;4.63;2.03;;;;;;;21.27;66.73;101092.56;4744869;30;20516;-90
2022/06/25 09:32:23;;;;;;;4.50;2.05;;;;;;;21.22;65.04;101083.91;4757341;30;20071;-90
2022/06/25 09:34:49;;;;;;;3.63;1.90;;;;;;;21.15;65.00;101074.47;4756613;30;20152;-90
2022/06/25 09:37:25;;;;;;;4.95;2.00;;;;;;;21.14;65.83;101084.38;4757027;30;20090;-89
2022/06/25 09:39:53;;;;;;;6.25;1.80;;;;;;;21.23;65.57;101082.91;4741641;30;20040;-90
2022/06/25 09:42:28;;;;;;;9.18;1.88;;;;;;;21.19;65.23;101076.88;4756901;30;20084;-89
2022/06/25 09:45:06;;;;;;;6.53;2.05;;;;;;;21.28;66.01;101075.41;4757778;30;20035;-89
2022/06/25 09:47:40;;;;;;;4.40;1.88;;;;;;;21.45;66.82;101079.78;4756461;30;20039;-88
2022/06/25 09:50:08;;;;;;;6.60;2.17;;;;;;;21.54;65.36;101081.00;4741745;30;20046;-89
2022/06/25 09:52:36;;;;;;;4.05;1.90;;;;;;;21.67;64.64;101090.03;4739312;30;20032;-89
2022/06/25 09:55:03;;;;;;;5.50;1.88;;;;;;;21.58;63.67;101083.41;4733275;30;20662;-90
2022/06/25 09:57:31;;;;;;;4.50;1.70;;;;;;;21.69;63.76;101098.91;4750873;30;20036;-89
2022/06/25 09:59:59;;;;;;;4.40;1.70;;;;;;;21.70;64.40;101087.13;4742289;30;20484;-89
2022/06/25 10:02:29;;;;;;;4.57;1.60;;;;;;;21.70;63.83;101089.84;4742479;30;20022;-91
2022/06/25 10:05:05;;;;;;;3.60;1.50;;;;;;;21.74;64.29;101091.38;4757539;30;20048;-88
2022/06/25 10:10:19;;;;;;;5.43;1.83;;;;;;;22.06;62.00;101085.72;4756382;30;20471;-88
2022/06/25 10:12:47;;;;;;;4.05;1.58;;;;;;;22.22;62.76;101083.75;4741576;30;20123;-90
2022/06/25 10:15:44;;;;;;;4.38;1.80;;;;;;;22.20;61.73;101077.56;4741809;30;20078;-89
2022/06/25 10:18:10;;;;;;;5.97;1.60;;;;;;;22.32;61.68;101086.69;4742853;30;20602;-88
2022/06/25 10:20:37;;;;;;;4.10;1.85;;;;;;;22.44;62.77;101085.88;4747728;30;20035;-89
2022/06/25 10:23:06;;;;;;;3.85;1.55;;;;;;;22.51;61.50;101099.81;4741516;30;20032;-89
2022/06/25 10:25:33;;;;;;;4.35;1.80;;;;;;;22.33;60.92;101085.75;4756240;30;20060;-90
2022/06/25 10:28:06;;;;;;;4.25;1.50;;;;;;;22.35;61.11;101086.47;4756342;30;20043;-90
2022/06/25 10:30:47;;;;;;;3.08;1.73;;;;;;;22.48;60.84;101070.34;4756360;30;20032;-90
2022/06/25 10:33:14;;;;;;;;;;;;;;;22.85;61.07;101081.28;4756442;30;20400;-90
2022/06/25 10:35:40;;;;;;;4.90;1.60;;;;;;;23.21;60.80;101060.78;4756252;30;19920;-89
2022/06/25 10:38:22;;;;;;;5.18;1.63;;;;;;;23.45;58.61;101079.78;4755883;30;20071;-89
2022/06/25 10:40:51;;;;;;;4.93;1.50;;;;;;;23.38;57.96;101079.34;4772456;30;20396;-89
2022/06/25 10:43:40;;;;;;;3.28;1.35;;;;;;;23.43;58.70;101087.13;4748716;30;20022;-89
2022/06/25 10:46:26;;;;;;;5.18;1.48;;;;;;;23.51;57.32;101082.03;4756377;30;20070;-90
2022/06/25 10:49:10;;;;;;;2.28;1.25;;;;;;;23.76;59.01;101068.50;4756528;30;20044;-88
2022/06/25 10:51:44;;;;;;;3.28;1.60;;;;;;;24.38;55.62;101086.41;4756637;30;20561;-87
2022/06/25 10:54:23;;;;;;;4.35;1.60;;;;;;;24.69;56.87;101084.06;4756411;30;20123;-89
2022/06/25 10:56:58;;;;;;;5.75;1.73;;;;;;;24.63;54.39;101058.34;4741102;30;20052;-88
2022/06/25 10:59:41;;;;;;;8.02;1.60;;;;;;;24.68;53.33;101074.25;4750684;30;20044;-88
2022/06/25 11:02:14;;;;;;;5.22;1.40;;;;;;;24.43;53.46;101077.91;4748144;30;20046;-91
2022/06/25 11:04:56;;;;;;;3.20;1.35;;;;;;;24.55;55.02;101060.75;4755637;30;20044;-91
2022/06/25 11:07:25;;;;;;;2.40;1.50;;;;;;;24.63;53.23;101057.50;4741247;30;20126;-90
2022/06/25 11:09:55;;;;;;;2.65;1.17;;;;;;;24.77;54.22;101062.66;4756079;30;20036;-91
2022/06/25 11:12:22;;;;;;;2.78;1.05;;;;;;;24.85;50.98;101056.66;4762590;30;20416;-91
2022/06/25 11:15:15;;;;;;;1.45;0.98;;;;;;;24.99;53.33;101047.44;4754951;30;20100;-92
2022/06/25 11:17:40;;;;;;;4.28;1.90;;;;;;;25.14;50.70;101048.06;4747491;30;20061;-89
2022/06/25 11:20:13;;;;;;;2.08;0.90;;;;;;;25.13;49.53;101059.91;4740925;30;20500;-89
2022/06/25 11:22:50;;;;;;;2.67;1.08;;;;;;;25.00;50.11;101054.56;4755903;30;20043;-90
2022/06/25 11:30:57;;;;;;;5.05;1.20;;;;;;;24.54;50.52;101059.03;4746014;30;20047;-91
2022/06/25 11:33:22;;;;;;;4.85;1.20;;;;;;;24.73;50.93;101072.03;4737398;30;20045;-90
2022/06/25 11:35:49;;;;;;;2.08;0.93;;;;;;;24.80;50.57;101053.44;4740501;30;20046;-92
2022/06/25 11:38:20;;;;;;;2.55;0.70;;;;;;;25.10;51.19;101066.44;4740439;30;20087;-91
2022/06/25 11:40:46;;;;;;;2.53;0.70;;;;;;;25.43;48.38;101072.88;4754938;30;20086;-90
2022/06/25 11:43:18;;;;;;;5.05;1.20;;;;;;;25.50;48.78;101071.38;4740438;30;20031;-90
2022/06/25 11:45:50;;;;;;;2.78;1.25;;;;;;;25.35;49.66;101065.34;4740801;30;20458;-89
2022/06/25 11:48:16;;;;;;;1.95;0.98;;;;;;;25.21;49.26;101066.44;4746348;30;20447;-89
2022/06/25 11:50:43;;;;;;;2.33;1.15;;;;;;;25.16;50.00;101079.47;4740488;30;20032;-90
2022/06/25 11:53:09;;;;;;;3.17;1.23;;;;;;;25.12;49.16;101061.72;4740005;30;20097;-92
2022/06/25 11:55:37;;;;;;;3.05;1.00;;;;;;;25.23;49.00;101069.91;4740062;30;20418;-89